Glenoak, Oklahoma
Current Conditions -  °F | °C
As of 12:53 PM on Tuesday 21 Oct 2014 (Local Time) from KBVO Reporting Station
Clear Clear  
Wind Chill: 75°   Ceiling: Unl
Heat Index: 75°   Visibility: 10mi
Dew Point: 58°   Wind: 9mph
Humidity: 55%   Direction: 140°SE
Pressure: 30.11"   Gusts: NA
Location:  36.7524°N, 96.0733°W
Report Text: KBVO 211753Z AUTO 14008KT 10SM CLR 24/14 A3011 RMK AO2 SLP189 T02390144 10239 20111 58010
Loading
Personal Weather Stations






























Interactive Weather Map
Tropical Storm Tracking
New forecast layout! Learn more

10-Day Weather Forecast

Advertisements
Track Severe Weather on mobile